New Martinsville, West Virginia
Current Conditions -  °F | °C
As of 4:53 AM on Thursday 18 Dec 2014 (Local Time) from KPKB Reporting Station
Overcast Overcast  
Wind Chill: 23°   Ceiling: 2000
Heat Index: 28°   Visibility: 10mi
Dew Point: 19°   Wind: 5mph
Humidity: 69%   Direction: 300°WNW
Pressure: 30.27"   Gusts: NA
Location:  39.64°N, 80.86°W
Report Text: KPKB 180953Z AUTO 30004KT 10SM OVC020 M02/M07 A3027 RMK AO2 SLP257 T10221072
Loading
Personal Weather Stations






























Interactive Weather Map New forecast layout! Learn more

10-Day Weather Forecast

Advertisements
Track Severe Weather on mobile